sensor_id;sensor_type;location;lat;lon;timestamp;pressure;altitude;pressure_sealevel;temperature;humidity
7441;BME280;29616;51.950;8.572;2022-10-31T00:01:40;100531.94;;;10.29;100.00
7441;BME280;29616;51.950;8.572;2022-10-31T00:04:11;100527.03;;;10.23;100.00
7441;BME280;29616;51.950;8.572;2022-10-31T00:06:39;100538.00;;;10.32;100.00
7441;BME280;29616;51.950;8.572;2022-10-31T00:09:09;100543.56;;;10.31;100.00
7441;BME280;29616;51.950;8.572;2022-10-31T00:11:39;100534.22;;;10.24;100.00
7441;BME280;29616;51.950;8.572;2022-10-31T00:14:09;100545.44;;;10.30;100.00
7441;BME280;29616;51.950;8.572;2022-10-31T00:16:37;100553.50;;;10.32;100.00
7441;BME280;29616;51.950;8.572;2022-10-31T00:19:08;100535.94;;;10.25;100.00
7441;BME280;29616;51.950;8.572;2022-10-31T00:21:36;100541.97;;;10.19;100.00
7441;BME280;29616;51.950;8.572;2022-10-31T00:24:07;100545.88;;;10.26;100.00
7441;BME280;29616;51.950;8.572;2022-10-31T00:26:38;100543.41;;;10.23;100.00
7441;BME280;29616;51.950;8.572;2022-10-31T00:29:08;100542.75;;;10.10;100.00
7441;BME280;29616;51.950;8.572;2022-10-31T00:31:37;100550.25;;;10.08;100.00
7441;BME280;29616;51.950;8.572;2022-10-31T00:34:07;100554.25;;;10.04;100.00
7441;BME280;29616;51.950;8.572;2022-10-31T00:36:35;100555.09;;;9.95;100.00
7441;BME280;29616;51.950;8.572;2022-10-31T00:39:05;100524.44;;;9.82;100.00
7441;BME280;29616;51.950;8.572;2022-10-31T00:41:34;100550.34;;;9.97;100.00
7441;BME280;29616;51.950;8.572;2022-10-31T00:44:09;100548.78;;;10.04;100.00
7441;BME280;29616;51.950;8.572;2022-10-31T00:46:37;100567.44;;;9.99;100.00
7441;BME280;29616;51.950;8.572;2022-10-31T00:49:07;100565.69;;;9.88;100.00
7441;BME280;29616;51.950;8.572;2022-10-31T00:51:35;100561.25;;;9.87;100.00
7441;BME280;29616;51.950;8.572;2022-10-31T00:54:06;100564.25;;;9.84;100.00
7441;BME280;29616;51.950;8.572;2022-10-31T00:56:35;100551.16;;;9.88;100.00
7441;BME280;29616;51.950;8.572;2022-10-31T00:59:03;100559.06;;;9.91;100.00
7441;BME280;29616;51.950;8.572;2022-10-31T01:01:33;100562.94;;;9.88;100.00
7441;BME280;29616;51.950;8.572;2022-10-31T01:04:01;100571.38;;;9.75;100.00
7441;BME280;29616;51.950;8.572;2022-10-31T01:06:31;100564.59;;;9.70;100.00
7441;BME280;29616;51.950;8.572;2022-10-31T01:09:01;100563.47;;;9.72;100.00
7441;BME280;29616;51.950;8.572;2022-10-31T01:11:30;100564.94;;;9.77;100.00
7441;BME280;29616;51.950;8.572;2022-10-31T01:14:02;100565.59;;;9.69;100.00
7441;BME280;29616;51.950;8.572;2022-10-31T01:16:33;100562.66;;;9.61;100.00
7441;BME280;29616;51.950;8.572;2022-10-31T01:19:03;100569.25;;;9.58;100.00
7441;BME280;29616;51.950;8.572;2022-10-31T01:21:31;100568.53;;;9.56;100.00
7441;BME280;29616;51.950;8.572;2022-10-31T01:24:00;100561.19;;;9.47;100.00
7441;BME280;29616;51.950;8.572;2022-10-31T01:26:32;100556.44;;;9.49;100.00
7441;BME280;29616;51.950;8.572;2022-10-31T01:29:04;100554.28;;;9.53;100.00
7441;BME280;29616;51.950;8.572;2022-10-31T01:31:38;100558.31;;;9.49;100.00
7441;BME280;29616;51.950;8.572;2022-10-31T01:34:07;100569.03;;;9.41;100.00
7441;BME280;29616;51.950;8.572;2022-10-31T01:36:38;100564.56;;;9.40;100.00
7441;BME280;29616;51.950;8.572;2022-10-31T01:39:11;100549.13;;;9.29;100.00
7441;BME280;29616;51.950;8.572;2022-10-31T01:41:44;100539.25;;;9.28;100.00
7441;BME280;29616;51.950;8.572;2022-10-31T01:44:52;100558.66;;;9.35;100.00
7441;BME280;29616;51.950;8.572;2022-10-31T01:47:36;100549.28;;;9.28;100.00
7441;BME280;29616;51.950;8.572;2022-10-31T01:50:15;100562.78;;;9.29;100.00
7441;BME280;29616;51.950;8.572;2022-10-31T01:52:50;100567.03;;;9.22;100.00
7441;BME280;29616;51.950;8.572;2022-10-31T01:55:24;100563.44;;;9.22;100.00
7441;BME280;29616;51.950;8.572;2022-10-31T01:57:59;100550.69;;;9.22;100.00
7441;BME280;29616;51.950;8.572;2022-10-31T02:00:31;100551.41;;;9.24;100.00
7441;BME280;29616;51.950;8.572;2022-10-31T02:03:02;100551.03;;;9.29;100.00
7441;BME280;29616;51.950;8.572;2022-10-31T02:05:32;100536.25;;;9.31;100.00
7441;BME280;29616;51.950;8.572;2022-10-31T02:08:06;100548.34;;;9.38;100.00
7441;BME280;29616;51.950;8.572;2022-10-31T02:10:37;100540.69;;;9.32;100.00
7441;BME280;29616;51.950;8.572;2022-10-31T02:13:08;100548.75;;;9.34;100.00
7441;BME280;29616;51.950;8.572;2022-10-31T02:15:44;100552.13;;;9.26;100.00
7441;BME280;29616;51.950;8.572;2022-10-31T02:18:15;100560.00;;;9.20;100.00
7441;BME280;29616;51.950;8.572;2022-10-31T02:20:58;100535.66;;;9.07;100.00
7441;BME280;29616;51.950;8.572;2022-10-31T02:23:51;100564.84;;;9.16;100.00
7441;BME280;29616;51.950;8.572;2022-10-31T02:26:51;100552.06;;;9.17;100.00
7441;BME280;29616;51.950;8.572;2022-10-31T02:29:56;100564.84;;;9.16;100.00
7441;BME280;29616;51.950;8.572;2022-10-31T02:35:53;100559.25;;;9.18;100.00
7441;BME280;29616;51.950;8.572;2022-10-31T02:38:37;100560.72;;;9.22;100.00
7441;BME280;29616;51.950;8.572;2022-10-31T02:41:18;100548.41;;;9.27;100.00
7441;BME280;29616;51.950;8.572;2022-10-31T02:44:02;100533.03;;;9.26;100.00
7441;BME280;29616;51.950;8.572;2022-10-31T02:46:38;100536.44;;;9.19;100.00
7441;BME280;29616;51.950;8.572;2022-10-31T02:49:20;100565.03;;;9.24;100.00
7441;BME280;29616;51.950;8.572;2022-10-31T02:51:51;100564.50;;;9.30;100.00
7441;BME280;29616;51.950;8.572;2022-10-31T02:54:23;100569.91;;;9.41;100.00
7441;BME280;29616;51.950;8.572;2022-10-31T02:56:58;100583.50;;;9.62;100.00
7441;BME280;29616;51.950;8.572;2022-10-31T02:59:29;100588.75;;;9.74;100.00
7441;BME280;29616;51.950;8.572;2022-10-31T03:02:28;100584.38;;;9.93;100.00
7441;BME280;29616;51.950;8.572;2022-10-31T03:08:02;100585.97;;;10.16;100.00
7441;BME280;29616;51.950;8.572;2022-10-31T03:10:40;100590.28;;;10.28;100.00
7441;BME280;29616;51.950;8.572;2022-10-31T03:13:14;100566.41;;;10.20;100.00
7441;BME280;29616;51.950;8.572;2022-10-31T03:16:02;100584.00;;;10.47;100.00
7441;BME280;29616;51.950;8.572;2022-10-31T03:18:37;100583.19;;;10.56;100.00
7441;BME280;29616;51.950;8.572;2022-10-31T03:21:13;100581.88;;;10.60;100.00
7441;BME280;29616;51.950;8.572;2022-10-31T03:23:44;100574.44;;;10.62;100.00
7441;BME280;29616;51.950;8.572;2022-10-31T03:26:21;100573.72;;;10.69;100.00
7441;BME280;29616;51.950;8.572;2022-10-31T03:28:53;100566.50;;;10.68;100.00
7441;BME280;29616;51.950;8.572;2022-10-31T03:31:25;100555.28;;;10.71;100.00
7441;BME280;29616;51.950;8.572;2022-10-31T03:34:00;100569.69;;;10.83;100.00
7441;BME280;29616;51.950;8.572;2022-10-31T03:36:35;100569.09;;;10.79;100.00
7441;BME280;29616;51.950;8.572;2022-10-31T03:39:13;100563.06;;;10.85;100.00
7441;BME280;29616;51.950;8.572;2022-10-31T03:41:46;100547.34;;;10.78;100.00
7441;BME280;29616;51.950;8.572;2022-10-31T03:44:19;100548.66;;;10.74;100.00
7441;BME280;29616;51.950;8.572;2022-10-31T03:46:57;100557.16;;;10.71;100.00
7441;BME280;29616;51.950;8.572;2022-10-31T03:49:27;100553.25;;;10.54;100.00
7441;BME280;29616;51.950;8.572;2022-10-31T03:52:04;100569.19;;;10.49;100.00
7441;BME280;29616;51.950;8.572;2022-10-31T03:54:43;100567.50;;;10.48;100.00
7441;BME280;29616;51.950;8.572;2022-10-31T03:57:18;100556.13;;;10.43;100.00
7441;BME280;29616;51.950;8.572;2022-10-31T03:59:54;100560.84;;;10.41;100.00
7441;BME280;29616;51.950;8.572;2022-10-31T04:02:30;100571.03;;;10.29;100.00
7441;BME280;29616;51.950;8.572;2022-10-31T04:05:00;100577.06;;;10.33;100.00
7441;BME280;29616;51.950;8.572;2022-10-31T04:07:35;100578.38;;;10.29;100.00
7441;BME280;29616;51.950;8.572;2022-10-31T04:10:10;100568.59;;;10.26;100.00
7441;BME280;29616;51.950;8.572;2022-10-31T04:12:44;100578.50;;;10.27;100.00
7441;BME280;29616;51.950;8.572;2022-10-31T04:15:22;100580.50;;;10.25;100.00
7441;BME280;29616;51.950;8.572;2022-10-31T04:17:55;100576.72;;;10.17;100.00
7441;BME280;29616;51.950;8.572;2022-10-31T04:20:33;100571.28;;;10.17;100.00
7441;BME280;29616;51.950;8.572;2022-10-31T04:23:17;100573.69;;;10.10;100.00
7441;BME280;29616;51.950;8.572;2022-10-31T04:25:47;100575.81;;;10.07;100.00
7441;BME280;29616;51.950;8.572;2022-10-31T04:28:17;100569.19;;;10.00;100.00
7441;BME280;29616;51.950;8.572;2022-10-31T04:30:51;100590.50;;;10.06;100.00
7441;BME280;29616;51.950;8.572;2022-10-31T04:33:21;100582.13;;;9.98;100.00
7441;BME280;29616;51.950;8.572;2022-10-31T04:35:51;100583.19;;;9.86;100.00
7441;BME280;29616;51.950;8.572;2022-10-31T04:38:22;100581.16;;;9.78;100.00
7441;BME280;29616;51.950;8.572;2022-10-31T04:40:52;100583.44;;;9.73;100.00
7441;BME280;29616;51.950;8.572;2022-10-31T04:43:40;100585.28;;;9.72;100.00
7441;BME280;29616;51.950;8.572;2022-10-31T04:46:09;100591.47;;;9.74;100.00
7441;BME280;29616;51.950;8.572;2022-10-31T04:48:37;100578.41;;;9.68;100.00
7441;BME280;29616;51.950;8.572;2022-10-31T04:51:07;100582.19;;;9.56;100.00
7441;BME280;29616;51.950;8.572;2022-10-31T04:53:37;100574.59;;;9.60;100.00
7441;BME280;29616;51.950;8.572;2022-10-31T04:56:25;100562.63;;;9.51;100.00
7441;BME280;29616;51.950;8.572;2022-10-31T04:58:58;100572.44;;;9.63;100.00
7441;BME280;29616;51.950;8.572;2022-10-31T05:01:39;100567.28;;;9.60;100.00
7441;BME280;29616;51.950;8.572;2022-10-31T05:04:10;100569.06;;;9.50;100.00
7441;BME280;29616;51.950;8.572;2022-10-31T05:06:39;100567.63;;;9.46;100.00
7441;BME280;29616;51.950;8.572;2022-10-31T05:09:10;100557.91;;;9.53;100.00
7441;BME280;29616;51.950;8.572;2022-10-31T05:11:39;100566.69;;;9.57;100.00
7441;BME280;29616;51.950;8.572;2022-10-31T05:14:20;100557.91;;;9.53;100.00
7441;BME280;29616;51.950;8.572;2022-10-31T05:17:11;100553.91;;;9.37;100.00
7441;BME280;29616;51.950;8.572;2022-10-31T05:20:00;100551.34;;;9.35;100.00
7441;BME280;29616;51.950;8.572;2022-10-31T05:23:01;100552.66;;;9.41;100.00
7441;BME280;29616;51.950;8.572;2022-10-31T05:25:33;100548.19;;;9.40;100.00
7441;BME280;29616;51.950;8.572;2022-10-31T05:28:04;100549.06;;;9.40;100.00
7441;BME280;29616;51.950;8.572;2022-10-31T05:30:34;100540.56;;;9.34;100.00
7441;BME280;29616;51.950;8.572;2022-10-31T05:33:08;100517.06;;;9.22;100.00
7441;BME280;29616;51.950;8.572;2022-10-31T05:35:44;100545.00;;;9.35;100.00
7441;BME280;29616;51.950;8.572;2022-10-31T05:38:33;100546.53;;;9.48;100.00
7441;BME280;29616;51.950;8.572;2022-10-31T05:41:30;100547.16;;;9.61;100.00
7441;BME280;29616;51.950;8.572;2022-10-31T05:44:09;100554.38;;;9.62;100.00
7441;BME280;29616;51.950;8.572;2022-10-31T05:47:18;100556.75;;;9.56;100.00
7441;BME280;29616;51.950;8.572;2022-10-31T05:50:10;100552.66;;;9.41;100.00
7441;BME280;29616;51.950;8.572;2022-10-31T05:52:54;100547.88;;;9.33;100.00
7441;BME280;29616;51.950;8.572;2022-10-31T05:55:31;100535.03;;;9.24;100.00
7441;BME280;29616;51.950;8.572;2022-10-31T05:58:09;100558.28;;;9.39;100.00
7441;BME280;29616;51.950;8.572;2022-10-31T06:00:45;100561.38;;;9.35;100.00
7441;BME280;29616;51.950;8.572;2022-10-31T06:03:14;100546.28;;;9.31;100.00
7441;BME280;29616;51.950;8.572;2022-10-31T06:05:46;100571.97;;;9.28;100.00
7441;BME280;29616;51.950;8.572;2022-10-31T06:08:25;100565.91;;;9.25;100.00
7441;BME280;29616;51.950;8.572;2022-10-31T06:10:55;100546.22;;;9.21;100.00
7441;BME280;29616;51.950;8.572;2022-10-31T06:13:48;100553.88;;;9.27;100.00
7441;BME280;29616;51.950;8.572;2022-10-31T06:16:23;100553.59;;;9.30;100.00
7441;BME280;29616;51.950;8.572;2022-10-31T06:18:55;100558.53;;;9.36;100.00
7441;BME280;29616;51.950;8.572;2022-10-31T06:21:25;100569.53;;;9.55;100.00
7441;BME280;29616;51.950;8.572;2022-10-31T06:23:56;100567.00;;;9.63;100.00
7441;BME280;29616;51.950;8.572;2022-10-31T06:26:43;100576.13;;;9.73;100.00
7441;BME280;29616;51.950;8.572;2022-10-31T06:29:14;100573.69;;;9.80;100.00
7441;BME280;29616;51.950;8.572;2022-10-31T06:32:10;100574.38;;;9.72;100.00
7441;BME280;29616;51.950;8.572;2022-10-31T06:34:43;100567.94;;;9.73;100.00
7441;BME280;29616;51.950;8.572;2022-10-31T06:37:16;100573.25;;;9.75;100.00
7441;BME280;29616;51.950;8.572;2022-10-31T06:39:47;100571.56;;;9.84;100.00
7441;BME280;29616;51.950;8.572;2022-10-31T06:42:18;100569.00;;;9.92;100.00
7441;BME280;29616;51.950;8.572;2022-10-31T06:44:49;100569.19;;;10.00;100.00
7441;BME280;29616;51.950;8.572;2022-10-31T06:47:35;100571.03;;;9.99;100.00
7441;BME280;29616;51.950;8.572;2022-10-31T06:50:27;100565.16;;;10.04;100.00
7441;BME280;29616;51.950;8.572;2022-10-31T06:52:57;100586.56;;;10.29;100.00
7441;BME280;29616;51.950;8.572;2022-10-31T06:55:26;100571.88;;;10.30;100.00
7441;BME280;29616;51.950;8.572;2022-10-31T06:57:58;100576.53;;;10.39;100.00
7441;BME280;29616;51.950;8.572;2022-10-31T07:00:32;100587.34;;;10.50;100.00
7441;BME280;29616;51.950;8.572;2022-10-31T07:03:09;100581.75;;;10.61;100.00
7441;BME280;29616;51.950;8.572;2022-10-31T07:05:37;100588.25;;;10.79;100.00
7441;BME280;29616;51.950;8.572;2022-10-31T07:08:09;100588.69;;;11.04;100.00
7441;BME280;29616;51.950;8.572;2022-10-31T07:10:40;100593.56;;;11.19;100.00
7441;BME280;29616;51.950;8.572;2022-10-31T07:13:13;100568.25;;;11.17;100.00
7441;BME280;29616;51.950;8.572;2022-10-31T07:15:53;100603.19;;;11.52;100.00
7441;BME280;29616;51.950;8.572;2022-10-31T07:18:22;100584.88;;;11.62;100.00
7441;BME280;29616;51.950;8.572;2022-10-31T07:20:52;100584.69;;;11.83;100.00
7441;BME280;29616;51.950;8.572;2022-10-31T07:23:22;100584.94;;;12.26;100.00
7441;BME280;29616;51.950;8.572;2022-10-31T07:26:11;100588.31;;;12.65;100.00
7441;BME280;29616;51.950;8.572;2022-10-31T07:28:45;100576.03;;;13.04;100.00
7441;BME280;29616;51.950;8.572;2022-10-31T07:31:21;100581.50;;;13.40;100.00
7441;BME280;29616;51.950;8.572;2022-10-31T07:33:53;100575.06;;;13.49;100.00
7441;BME280;29616;51.950;8.572;2022-10-31T07:36:27;100582.94;;;13.95;100.00
7441;BME280;29616;51.950;8.572;2022-10-31T07:39:01;100580.78;;;14.07;100.00
7441;BME280;29616;51.950;8.572;2022-10-31T07:41:33;100583.63;;;14.31;100.00
7441;BME280;29616;51.950;8.572;2022-10-31T07:44:02;100576.22;;;14.65;100.00
7441;BME280;29616;51.950;8.572;2022-10-31T07:46:51;100579.59;;;15.65;100.00
7441;BME280;29616;51.950;8.572;2022-10-31T07:49:39;100571.13;;;16.46;100.00
7441;BME280;29616;51.950;8.572;2022-10-31T07:52:27;100564.22;;;16.81;100.00
7441;BME280;29616;51.950;8.572;2022-10-31T07:55:18;100568.38;;;17.08;100.00
7441;BME280;29616;51.950;8.572;2022-10-31T07:57:56;100580.09;;;17.55;100.00
7441;BME280;29616;51.950;8.572;2022-10-31T08:00:28;100571.06;;;17.61;100.00
7441;BME280;29616;51.950;8.572;2022-10-31T08:03:00;100582.66;;;17.94;100.00
7441;BME280;29616;51.950;8.572;2022-10-31T08:05:47;100567.22;;;17.99;100.00
7441;BME280;29616;51.950;8.572;2022-10-31T08:08:28;100576.28;;;17.93;100.00
7441;BME280;29616;51.950;8.572;2022-10-31T08:11:03;100576.06;;;17.80;100.00
7441;BME280;29616;51.950;8.572;2022-10-31T08:13:32;100574.59;;;18.36;100.00
7441;BME280;29616;51.950;8.572;2022-10-31T08:16:04;100579.25;;;18.65;100.00
7441;BME280;29616;51.950;8.572;2022-10-31T08:18:44;100573.25;;;18.97;100.00
7441;BME280;29616;51.950;8.572;2022-10-31T08:21:14;100579.84;;;18.82;100.00
7441;BME280;29616;51.950;8.572;2022-10-31T08:23:45;100572.34;;;18.75;100.00
7441;BME280;29616;51.950;8.572;2022-10-31T08:26:18;100575.66;;;18.86;100.00
7441;BME280;29616;51.950;8.572;2022-10-31T08:28:49;100572.06;;;19.06;100.00
7441;BME280;29616;51.950;8.572;2022-10-31T08:31:20;100578.59;;;18.48;100.00
7441;BME280;29616;51.950;8.572;2022-10-31T08:34:13;100578.88;;;18.39;100.00
7441;BME280;29616;51.950;8.572;2022-10-31T08:37:12;100570.06;;;17.91;100.00
7441;BME280;29616;51.950;8.572;2022-10-31T08:39:46;100566.25;;;17.92;100.00
7441;BME280;29616;51.950;8.572;2022-10-31T08:42:17;100564.47;;;17.62;100.00
7441;BME280;29616;51.950;8.572;2022-10-31T08:44:46;100562.88;;;17.45;100.00
7441;BME280;29616;51.950;8.572;2022-10-31T08:47:14;100567.19;;;17.25;100.00
7441;BME280;29616;51.950;8.572;2022-10-31T08:49:45;100568.84;;;16.88;100.00
7441;BME280;29616;51.950;8.572;2022-10-31T08:52:16;100572.19;;;16.76;100.00
7441;BME280;29616;51.950;8.572;2022-10-31T08:54:46;100553.84;;;16.52;100.00
7441;BME280;29616;51.950;8.572;2022-10-31T08:57:35;100554.56;;;16.54;100.00
7441;BME280;29616;51.950;8.572;2022-10-31T09:00:07;100554.81;;;16.67;100.00
7441;BME280;29616;51.950;8.572;2022-10-31T09:02:58;100556.50;;;16.76;100.00
7441;BME280;29616;51.950;8.572;2022-10-31T09:05:32;100545.66;;;16.98;100.00
7441;BME280;29616;51.950;8.572;2022-10-31T09:08:04;100541.97;;;17.05;100.00
7441;BME280;29616;51.950;8.572;2022-10-31T09:10:39;100549.28;;;17.21;100.00
7441;BME280;29616;51.950;8.572;2022-10-31T09:13:12;100547.22;;;17.60;100.00
7441;BME280;29616;51.950;8.572;2022-10-31T09:16:17;100550.53;;;17.93;100.00
7441;BME280;29616;51.950;8.572;2022-10-31T09:18:45;100540.03;;;18.32;100.00
7441;BME280;29616;51.950;8.572;2022-10-31T09:21:17;100533.44;;;18.48;100.00
7441;BME280;29616;51.950;8.572;2022-10-31T09:23:47;100538.91;;;18.77;100.00
7441;BME280;29616;51.950;8.572;2022-10-31T09:26:16;100540.88;;;18.62;100.00
7441;BME280;29616;51.950;8.572;2022-10-31T09:28:55;100532.38;;;18.63;100.00
7441;BME280;29616;51.950;8.572;2022-10-31T09:31:25;100539.84;;;18.48;100.00
7441;BME280;29616;51.950;8.572;2022-10-31T09:34:16;100531.22;;;18.58;100.00
7441;BME280;29616;51.950;8.572;2022-10-31T09:36:57;100533.72;;;18.67;100.00
7441;BME280;29616;51.950;8.572;2022-10-31T09:39:27;100530.06;;;18.67;100.00
7441;BME280;29616;51.950;8.572;2022-10-31T09:42:35;100525.06;;;18.77;100.00
7441;BME280;29616;51.950;8.572;2022-10-31T09:45:20;100531.56;;;18.84;100.00
7441;BME280;29616;51.950;8.572;2022-10-31T09:48:27;100526.22;;;18.83;100.00
7441;BME280;29616;51.950;8.572;2022-10-31T09:51:22;100525.56;;;18.81;100.00
7441;BME280;29616;51.950;8.572;2022-10-31T09:54:09;100529.53;;;19.14;100.00
7441;BME280;29616;51.950;8.572;2022-10-31T09:56:39;100529.25;;;19.30;100.00
7441;BME280;29616;51.950;8.572;2022-10-31T09:59:25;100539.69;;;19.49;100.00
7441;BME280;29616;51.950;8.572;2022-10-31T10:02:03;100508.59;;;19.32;100.00
7441;BME280;29616;51.950;8.572;2022-10-31T10:04:42;100525.75;;;19.64;100.00
7441;BME280;29616;51.950;8.572;2022-10-31T10:07:28;100539.88;;;20.31;100.00
7441;BME280;29616;51.950;8.572;2022-10-31T10:10:43;100531.94;;;20.69;100.00
7441;BME280;29616;51.950;8.572;2022-10-31T10:13:55;100528.25;;;20.48;100.00
7441;BME280;29616;51.950;8.572;2022-10-31T10:16:44;100524.28;;;20.84;100.00
7441;BME280;29616;51.950;8.572;2022-10-31T10:19:38;100524.34;;;20.97;100.00
7441;BME280;29616;51.950;8.572;2022-10-31T10:22:15;100525.50;;;20.62;100.00
7441;BME280;29616;51.950;8.572;2022-10-31T10:25:12;100526.78;;;20.66;100.00
7441;BME280;29616;51.950;8.572;2022-10-31T10:28:03;100523.19;;;20.72;100.00
7441;BME280;29616;51.950;8.572;2022-10-31T10:30:41;100517.88;;;20.77;100.00
7441;BME280;29616;51.950;8.572;2022-10-31T10:33:14;100508.94;;;20.88;100.00
7441;BME280;29616;51.950;8.572;2022-10-31T10:35:49;100508.91;;;20.81;100.00
7441;BME280;29616;51.950;8.572;2022-10-31T10:38:28;100506.47;;;21.32;100.00
7441;BME280;29616;51.950;8.572;2022-10-31T10:41:00;100474.16;;;21.11;100.00
7441;BME280;29616;51.950;8.572;2022-10-31T10:43:35;100489.78;;;21.71;100.00
7441;BME280;29616;51.950;8.572;2022-10-31T10:46:18;100496.38;;;22.16;100.00
7441;BME280;29616;51.950;8.572;2022-10-31T10:49:16;100491.41;;;22.25;100.00
7441;BME280;29616;51.950;8.572;2022-10-31T10:51:54;100486.94;;;22.75;100.00
7441;BME280;29616;51.950;8.572;2022-10-31T10:54:56;100472.53;;;22.84;100.00
7441;BME280;29616;51.950;8.572;2022-10-31T10:57:52;100472.19;;;23.30;100.00
7441;BME280;29616;51.950;8.572;2022-10-31T11:00:27;100454.06;;;22.83;100.00
7441;BME280;29616;51.950;8.572;2022-10-31T11:02:58;100453.72;;;22.73;100.00
7441;BME280;29616;51.950;8.572;2022-10-31T11:05:36;100447.09;;;22.68;100.00
7441;BME280;29616;51.950;8.572;2022-10-31T11:08:08;100445.81;;;22.70;100.00
7441;BME280;29616;51.950;8.572;2022-10-31T11:10:38;100453.50;;;22.24;100.00
7441;BME280;29616;51.950;8.572;2022-10-31T11:13:21;100450.19;;;21.89;100.00
7441;BME280;29616;51.950;8.572;2022-10-31T11:15:58;100441.81;;;21.83;100.00
7441;BME280;29616;51.950;8.572;2022-10-31T11:18:31;100443.78;;;21.95;100.00
7441;BME280;29616;51.950;8.572;2022-10-31T11:21:02;100446.28;;;22.10;100.00
7441;BME280;29616;51.950;8.572;2022-10-31T11:23:33;100432.22;;;21.92;100.00
7441;BME280;29616;51.950;8.572;2022-10-31T11:26:04;100441.41;;;21.72;100.00
7441;BME280;29616;51.950;8.572;2022-10-31T11:28:36;100433.75;;;21.48;100.00
7441;BME280;29616;51.950;8.572;2022-10-31T11:31:11;100432.88;;;21.48;100.00
7441;BME280;29616;51.950;8.572;2022-10-31T11:33:47;100433.56;;;21.37;100.00
7441;BME280;29616;51.950;8.572;2022-10-31T11:36:20;100415.19;;;21.09;100.00
7441;BME280;29616;51.950;8.572;2022-10-31T11:38:52;100415.34;;;20.95;100.00
7441;BME280;29616;51.950;8.572;2022-10-31T11:41:27;100412.97;;;20.72;100.00
7441;BME280;29616;51.950;8.572;2022-10-31T11:43:58;100417.53;;;20.26;100.00
7441;BME280;29616;51.950;8.572;2022-10-31T11:46:34;100409.81;;;20.21;100.00
7441;BME280;29616;51.950;8.572;2022-10-31T11:49:05;100406.34;;;20.06;100.00
7441;BME280;29616;51.950;8.572;2022-10-31T11:51:42;100415.47;;;20.00;100.00
7441;BME280;29616;51.950;8.572;2022-10-31T11:54:22;100415.47;;;20.00;100.00
7441;BME280;29616;51.950;8.572;2022-10-31T11:56:53;100405.19;;;19.94;100.00
7441;BME280;29616;51.950;8.572;2022-10-31T11:59:27;100381.19;;;20.14;100.00
7441;BME280;29616;51.950;8.572;2022-10-31T12:02:01;100384.69;;;20.36;100.00
7441;BME280;29616;51.950;8.572;2022-10-31T12:04:39;100387.69;;;20.34;100.00
7441;BME280;29616;51.950;8.572;2022-10-31T12:07:09;100382.78;;;20.43;100.00
7441;BME280;29616;51.950;8.572;2022-10-31T12:09:39;100382.81;;;20.63;100.00
7441;BME280;29616;51.950;8.572;2022-10-31T12:12:29;100377.94;;;20.65;100.00
7441;BME280;29616;51.950;8.572;2022-10-31T12:15:29;100369.19;;;20.94;100.00
7441;BME280;29616;51.950;8.572;2022-10-31T12:18:28;100361.06;;;21.05;100.00
7441;BME280;29616;51.950;8.572;2022-10-31T12:21:16;100362.81;;;21.26;100.00
7441;BME280;29616;51.950;8.572;2022-10-31T12:23:58;100369.72;;;21.81;100.00
7441;BME280;29616;51.950;8.572;2022-10-31T12:26:42;100337.06;;;22.14;100.00
7441;BME280;29616;51.950;8.572;2022-10-31T12:29:35;100346.00;;;22.61;100.00
7441;BME280;29616;51.950;8.572;2022-10-31T12:32:23;100352.78;;;22.78;100.00
7441;BME280;29616;51.950;8.572;2022-10-31T12:35:26;100333.19;;;22.53;100.00
7441;BME280;29616;51.950;8.572;2022-10-31T12:38:26;100334.69;;;22.18;100.00
7441;BME280;29616;51.950;8.572;2022-10-31T12:41:24;100331.81;;;21.93;100.00
7441;BME280;29616;51.950;8.572;2022-10-31T12:44:06;100322.78;;;22.04;100.00
7441;BME280;29616;51.950;8.572;2022-10-31T12:47:01;100321.09;;;22.03;100.00
7441;BME280;29616;51.950;8.572;2022-10-31T12:49:46;100317.22;;;22.04;100.00
7441;BME280;29616;51.950;8.572;2022-10-31T12:52:33;100309.38;;;22.26;100.00
7441;BME280;29616;51.950;8.572;2022-10-31T12:55:31;100294.16;;;22.28;100.00
7441;BME280;29616;51.950;8.572;2022-10-31T12:58:06;100291.63;;;22.27;100.00
7441;BME280;29616;51.950;8.572;2022-10-31T13:00:40;100290.69;;;22.33;100.00
7441;BME280;29616;51.950;8.572;2022-10-31T13:03:23;100293.38;;;22.15;100.00
7441;BME280;29616;51.950;8.572;2022-10-31T13:05:58;100276.78;;;22.33;100.00
7441;BME280;29616;51.950;8.572;2022-10-31T13:08:35;100286.22;;;22.32;100.00
7441;BME280;29616;51.950;8.572;2022-10-31T13:11:10;100280.56;;;22.45;100.00
7441;BME280;29616;51.950;8.572;2022-10-31T13:13:53;100276.69;;;22.46;100.00
7441;BME280;29616;51.950;8.572;2022-10-31T13:16:29;100260.91;;;22.09;100.00
7441;BME280;29616;51.950;8.572;2022-10-31T13:19:03;100266.34;;;21.84;100.00
7441;BME280;29616;51.950;8.572;2022-10-31T13:21:41;100262.50;;;21.92;100.00
7441;BME280;29616;51.950;8.572;2022-10-31T13:24:16;100260.78;;;21.91;100.00
7441;BME280;29616;51.950;8.572;2022-10-31T13:26:50;100252.53;;;21.64;100.00
7441;BME280;29616;51.950;8.572;2022-10-31T13:29:24;100247.81;;;21.71;100.00
7441;BME280;29616;51.950;8.572;2022-10-31T13:32:00;100240.09;;;21.73;100.00
7441;BME280;29616;51.950;8.572;2022-10-31T13:34:33;100243.75;;;21.67;100.00
7441;BME280;29616;51.950;8.572;2022-10-31T13:37:12;100234.03;;;21.83;100.00
7441;BME280;29616;51.950;8.572;2022-10-31T13:40:04;100236.56;;;21.98;100.00
7441;BME280;29616;51.950;8.572;2022-10-31T13:42:48;100224.22;;;21.81;100.00
7441;BME280;29616;51.950;8.572;2022-10-31T13:45:23;100216.50;;;21.83;100.00
7441;BME280;29616;51.950;8.572;2022-10-31T13:47:59;100223.34;;;21.87;100.00
7441;BME280;29616;51.950;8.572;2022-10-31T13:50:32;100224.34;;;21.61;100.00
7441;BME280;29616;51.950;8.572;2022-10-31T13:53:18;100205.13;;;21.53;100.00